Snav Lazio — IBUH — position and weather

sailwx.info

Track history (hours):
 
Tides and Currents Weather Stations Pressure Air Temp Water Temp Dewpoint Dewpoint Depression Visibility Wind Speed Wind Dir Waves Ship Positions

Snav Lazio

Last reported at 2017-Jan-18 12:33 UTC. Time now 2017-Jan-18 18:18 UTC.
Position N 43°22' E 003°46'.

Length 162 m; draft 6.1 m.

Type: Passenger vessel. MMSI: 247163100.

Date/timePositionNaut miles runAvg speedWind from/ knotsBaromVisibWave heightAir tempDewpointWater temp
2017-Jan-18 12:33N 43°22' E 003°46'15617.2
2017-Jan-18 03:31N 41°03' E 002°10'1718.2
2017-Jan-18 02:33N 40°51' E 001°53'1817.8
2017-Jan-18 01:33N 40°39' E 001°35'1817.7
2017-Jan-18 00:33N 40°24' E 001°23'1818.0
2017-Jan-17 23:33N 40°08' E 001°13'14717.4
2017-Jan-17 15:04N 37°57' W 000°14'1017.9
2017-Jan-17 14:30N 37°48' W 000°20'1617.2
2017-Jan-17 13:33N 37°34' W 000°31'1817.7
2017-Jan-17 12:33N 37°22' W 000°47'1818.0
2017-Jan-17 11:33N 37°10' W 001°04'20918.7
2017-Jan-17 00:19N 36°01' W 005°10'1418.4
2017-Jan-16 23:33N 35°56' W 005°26'223 9.7
2017-Jan-16 00:33N 37°13' W 001°06'1717.3
2017-Jan-15 23:33N 37°24' W 000°49'1716.9
2017-Jan-15 22:33N 37°35' W 000°33'1717.5
2017-Jan-15 21:33N 37°50' W 000°21'1717.4
2017-Jan-15 20:33N 38°05' W 000°10'13018.6
2017-Jan-15 13:33N 39°60' E 001°09'2019.7
2017-Jan-15 12:33N 40°18' E 001°20'1919.4
2017-Jan-15 11:33N 40°35' E 001°31'1919.3
2017-Jan-15 10:33N 40°51' E 001°45'2019.7
2017-Jan-15 09:33N 41°06' E 002°02'17 8.1
2017-Jan-15 07:27N 41°22' E 002°11'0 0.0
2017-Jan-15 06:27N 41°22' E 002°11'0 0.0
2017-Jan-15 05:33N 41°22' E 002°11'0 0.0
2017-Jan-15 04:30N 41°22' E 002°11'136 6.7
2017-Jan-14 08:13N 43°19' E 003°46'13515.6
2017-Jan-13 23:33N 41°12' E 002°41'1818.2
2017-Jan-13 22:33N 40°57' E 002°27'1918.9
2017-Jan-13 21:34N 40°41' E 002°14'1818.5
2017-Jan-13 20:33N 40°26' E 002°01'1818.4
2017-Jan-13 19:34N 40°11' E 001°47'1817.8
2017-Jan-13 18:34N 39°56' E 001°34'3618.0
2017-Jan-13 16:33N 39°26' E 001°08'12818.3
2017-Jan-13 09:33N 37°40' W 000°24'1918.9
2017-Jan-13 08:32N 37°26' W 000°40'1919.3
2017-Jan-13 07:33N 37°13' W 000°58'2119.7
2017-Jan-13 06:30N 36°60' W 001°18'21310.6
2017-Jan-12 10:27N 35°56' W 005°30'1516.4
2017-Jan-12 09:33N 36°01' W 005°13'208 9.4
2017-Jan-11 11:33N 37°03' W 001°06'1817.7
2017-Jan-11 10:32N 37°17' W 000°52'1717.1
2017-Jan-11 09:33N 37°30' W 000°39'1616.4
2017-Jan-11 08:33N 37°43' W 000°27'1817.9
2017-Jan-11 07:33N 37°59' W 000°15'13619.4
2017-Jan-11 00:33N 39°50' E 001°25'1919.2
2017-Jan-10 23:33N 40°06' E 001°39'1918.8
2017-Jan-10 22:33N 40°21' E 001°53'1918.7
2017-Jan-10 21:33N 40°36' E 002°07'1919.2
2017-Jan-10 20:33N 40°52' E 002°22'1919.4
2017-Jan-10 19:33N 41°08' E 002°37'21 0.5
2017-Jan-08 23:30N 41°17' E 002°12'5 2.7
2017-Jan-08 21:33N 41°22' E 002°11'0 0.0
2017-Jan-08 20:33N 41°22' E 002°11'0 0.0
2017-Jan-08 19:34N 41°22' E 002°11'0 0.0
2017-Jan-08 18:33N 41°22' E 002°11'2 1.9
2017-Jan-08 17:34N 41°20' E 002°10'1413.9
2017-Jan-08 16:33N 41°07' E 002°05'1918.8
2017-Jan-08 15:33N 40°50' E 001°54'1919.1
2017-Jan-08 14:33N 40°33' E 001°43'1919.3
2017-Jan-08 13:33N 40°15' E 001°31'  
Track history (hours):
 
Tides and Currents Weather Stations Pressure Air Temp Water Temp Dewpoint Dewpoint Depression Visibility Wind Speed Wind Dir Waves Ship Positions

Snav Lazio

Last reported at 2017-Jan-18 12:33 UTC. Time now 2017-Jan-18 18:18 UTC.
Position N 43°22' E 003°46'.

Length 162 m; draft 6.1 m.

Type: Passenger vessel. MMSI: 247163100.

Date/timePositionNaut miles runAvg speedWind from/ knotsBaromVisibWave heightAir tempDewpointWater temp
2017-Jan-18 12:33N 43°22' E 003°46'15617.2
2017-Jan-18 03:31N 41°03' E 002°10'1718.2
2017-Jan-18 02:33N 40°51' E 001°53'1817.8
2017-Jan-18 01:33N 40°39' E 001°35'1817.7
2017-Jan-18 00:33N 40°24' E 001°23'1818.0
2017-Jan-17 23:33N 40°08' E 001°13'14717.4
2017-Jan-17 15:04N 37°57' W 000°14'1017.9
2017-Jan-17 14:30N 37°48' W 000°20'1617.2
2017-Jan-17 13:33N 37°34' W 000°31'1817.7
2017-Jan-17 12:33N 37°22' W 000°47'1818.0
2017-Jan-17 11:33N 37°10' W 001°04'20918.7
2017-Jan-17 00:19N 36°01' W 005°10'1418.4
2017-Jan-16 23:33N 35°56' W 005°26'223 9.7
2017-Jan-16 00:33N 37°13' W 001°06'1717.3
2017-Jan-15 23:33N 37°24' W 000°49'1716.9
2017-Jan-15 22:33N 37°35' W 000°33'1717.5
2017-Jan-15 21:33N 37°50' W 000°21'1717.4
2017-Jan-15 20:33N 38°05' W 000°10'13018.6
2017-Jan-15 13:33N 39°60' E 001°09'2019.7
2017-Jan-15 12:33N 40°18' E 001°20'1919.4
2017-Jan-15 11:33N 40°35' E 001°31'1919.3
2017-Jan-15 10:33N 40°51' E 001°45'2019.7
2017-Jan-15 09:33N 41°06' E 002°02'17 8.1
2017-Jan-15 07:27N 41°22' E 002°11'0 0.0
2017-Jan-15 06:27N 41°22' E 002°11'0 0.0
2017-Jan-15 05:33N 41°22' E 002°11'0 0.0
2017-Jan-15 04:30N 41°22' E 002°11'136 6.7
2017-Jan-14 08:13N 43°19' E 003°46'13515.6
2017-Jan-13 23:33N 41°12' E 002°41'1818.2
2017-Jan-13 22:33N 40°57' E 002°27'1918.9
2017-Jan-13 21:34N 40°41' E 002°14'1818.5
2017-Jan-13 20:33N 40°26' E 002°01'1818.4
2017-Jan-13 19:34N 40°11' E 001°47'1817.8
2017-Jan-13 18:34N 39°56' E 001°34'3618.0
2017-Jan-13 16:33N 39°26' E 001°08'12818.3
2017-Jan-13 09:33N 37°40' W 000°24'1918.9
2017-Jan-13 08:32N 37°26' W 000°40'1919.3
2017-Jan-13 07:33N 37°13' W 000°58'2119.7
2017-Jan-13 06:30N 36°60' W 001°18'21310.6
2017-Jan-12 10:27N 35°56' W 005°30'1516.4
2017-Jan-12 09:33N 36°01' W 005°13'208 9.4
2017-Jan-11 11:33N 37°03' W 001°06'1817.7
2017-Jan-11 10:32N 37°17' W 000°52'1717.1
2017-Jan-11 09:33N 37°30' W 000°39'1616.4
2017-Jan-11 08:33N 37°43' W 000°27'1817.9
2017-Jan-11 07:33N 37°59' W 000°15'13619.4
2017-Jan-11 00:33N 39°50' E 001°25'1919.2
2017-Jan-10 23:33N 40°06' E 001°39'1918.8
2017-Jan-10 22:33N 40°21' E 001°53'1918.7
2017-Jan-10 21:33N 40°36' E 002°07'1919.2
2017-Jan-10 20:33N 40°52' E 002°22'1919.4
2017-Jan-10 19:33N 41°08' E 002°37'21 0.5
2017-Jan-08 23:30N 41°17' E 002°12'5 2.7
2017-Jan-08 21:33N 41°22' E 002°11'0 0.0
2017-Jan-08 20:33N 41°22' E 002°11'0 0.0
2017-Jan-08 19:34N 41°22' E 002°11'0 0.0
2017-Jan-08 18:33N 41°22' E 002°11'2 1.9
2017-Jan-08 17:34N 41°20' E 002°10'1413.9
2017-Jan-08 16:33N 41°07' E 002°05'1918.8
2017-Jan-08 15:33N 40°50' E 001°54'1919.1
2017-Jan-08 14:33N 40°33' E 001°43'1919.3
2017-Jan-08 13:33N 40°15' E 001°31'  

Dump ship's entire track history